Time;durP1;ratioP1;P1;durP2;ratioP2;P2;SDS_P1;SDS_P2;PMS_P1;PMS_P2;Temp;Humidity;BMP_temperature;BMP_pressure;BME280_temperature;BME280_humidity;BME280_pressure;Samples;Min_cycle;Max_cycle;Signal;HPM_P1;HPM_P2
2022/08/18 00:01:21;;;;;;;5.28;3.50;;;;;;;19.98;70.66;94471.44;5006042;28;20276;-74
2022/08/18 00:03:50;;;;;;;5.82;3.58;;;;;;;20.00;70.37;94469.88;5008381;28;20276;-72
2022/08/18 00:06:17;;;;;;;5.13;3.80;;;;;;;20.05;70.39;94476.97;5008519;28;20267;-72
2022/08/18 00:08:44;;;;;;;6.57;3.88;;;;;;;20.04;71.52;94475.38;5008298;28;20209;-73
2022/08/18 00:11:11;;;;;;;4.82;3.55;;;;;;;20.04;71.33;94475.38;5008114;28;20216;-73
2022/08/18 00:13:38;;;;;;;8.20;4.20;;;;;;;20.06;70.42;94478.53;5007924;28;20201;-72
2022/08/18 00:16:07;;;;;;;5.85;3.78;;;;;;;20.03;69.92;94473.81;5007846;28;20229;-73
2022/08/18 00:18:33;;;;;;;10.75;3.92;;;;;;;19.94;70.24;94481.66;5007805;28;20209;-72
2022/08/18 00:21:01;;;;;;;6.85;4.03;;;;;;;19.97;70.36;94475.38;5007806;28;20205;-74
2022/08/18 00:23:31;;;;;;;6.32;3.67;;;;;;;20.01;70.07;94484.41;5007496;28;20315;-74
2022/08/18 00:25:59;;;;;;;5.63;3.90;;;;;;;20.02;71.08;94478.53;5007698;28;20217;-73
2022/08/18 00:28:25;;;;;;;7.85;4.82;;;;;;;19.90;71.43;94475.38;5007407;28;20315;-72
2022/08/18 00:30:53;;;;;;;4.22;3.30;;;;;;;19.89;71.12;94477.34;5006969;28;21072;-72
2022/08/18 00:33:21;;;;;;;6.78;3.67;;;;;;;19.88;70.79;94482.03;5008117;28;20725;-73
2022/08/18 00:35:48;;;;;;;6.88;4.07;;;;;;;19.81;71.05;94468.31;5008933;28;20225;-73
2022/08/18 00:38:15;;;;;;;8.15;3.80;;;;;;;19.80;71.73;94477.72;5008700;28;20200;-73
2022/08/18 00:40:45;;;;;;;6.32;5.10;;;;;;;19.78;71.37;94476.53;5008304;28;20204;-73
2022/08/18 00:43:21;;;;;;;4.35;3.10;;;;;;;19.60;71.47;94479.22;5008265;28;20329;-73
2022/08/18 00:45:48;;;;;;;4.95;3.67;;;;;;;19.55;71.54;94481.56;5008194;28;20200;-73
2022/08/18 00:48:15;;;;;;;5.72;3.75;;;;;;;19.55;71.34;94476.84;5008240;28;20743;-73
2022/08/18 00:50:48;;;;;;;6.45;4.70;;;;;;;19.58;71.07;94481.56;5008491;28;20278;-73
2022/08/18 00:53:19;;;;;;;4.55;3.50;;;;;;;19.45;71.41;94475.63;5008214;28;20208;-72
2022/08/18 00:55:49;;;;;;;9.52;4.07;;;;;;;19.54;71.01;94491.78;5008636;28;20197;-73
2022/08/18 00:58:22;;;;;;;6.60;3.97;;;;;;;19.55;71.39;94487.06;4995848;28;20209;-73
2022/08/18 01:00:51;;;;;;;5.63;3.58;;;;;;;19.46;72.43;94490.94;5011426;28;20200;-73
2022/08/18 01:03:21;;;;;;;5.53;3.72;;;;;;;19.27;73.20;94494.00;5011444;28;20267;-75
2022/08/18 01:05:56;;;;;;;5.78;3.75;;;;;;;19.20;73.85;94506.91;5011891;28;20196;-73
2022/08/18 01:08:23;;;;;;;4.78;3.58;;;;;;;19.16;73.51;94493.94;5012176;28;20197;-73
2022/08/18 01:10:51;;;;;;;10.40;3.92;;;;;;;19.15;74.05;94497.88;5011909;28;20209;-73
2022/08/18 01:13:18;;;;;;;5.65;3.95;;;;;;;19.17;74.24;94501.03;5012025;28;20213;-73
2022/08/18 01:15:44;;;;;;;5.90;3.55;;;;;;;19.20;73.42;94498.69;5007746;28;20226;-74
2022/08/18 01:23:55;;;;;;;4.80;3.80;;;;;;;19.21;74.08;94503.78;5011526;28;20223;-72
2022/08/18 01:26:24;;;;;;;9.60;3.42;;;;;;;19.15;74.47;94497.06;5011710;28;21177;-73
2022/08/18 01:28:52;;;;;;;5.18;3.75;;;;;;;19.14;74.81;94490.78;5011887;28;20213;-73
2022/08/18 01:31:36;;;;;;;7.18;3.75;;;;;;;19.05;75.13;94487.63;5011275;28;20208;-73
2022/08/18 01:34:05;;;;;;;6.10;3.83;;;;;;;19.00;75.62;94484.44;4999798;28;20201;-72
2022/08/18 01:36:36;;;;;;;5.88;3.92;;;;;;;18.98;75.81;94487.59;5010522;28;20778;-73
2022/08/18 01:39:06;;;;;;;5.68;3.97;;;;;;;18.98;75.48;94486.81;5011508;28;20205;-73
2022/08/18 01:41:33;;;;;;;7.18;4.00;;;;;;;18.92;75.15;94488.34;5010640;28;20205;-74
2022/08/18 01:44:01;;;;;;;5.22;3.50;;;;;;;18.83;75.54;94480.47;5010898;28;20233;-74
2022/08/18 01:46:30;;;;;;;5.88;3.83;;;;;;;18.87;75.72;94485.94;5011032;28;20757;-74
2022/08/18 01:49:00;;;;;;;5.28;3.65;;;;;;;18.89;75.68;94483.59;5011379;28;20211;-74
2022/08/18 01:51:28;;;;;;;5.55;3.40;;;;;;;18.82;75.67;94478.88;5010875;28;20327;-73
2022/08/18 01:53:57;;;;;;;5.15;3.78;;;;;;;18.90;74.96;94475.00;5010862;28;20205;-74
2022/08/18 01:56:26;;;;;;;6.63;3.83;;;;;;;18.92;75.20;94472.66;5011216;28;20286;-73
2022/08/18 01:58:54;;;;;;;4.97;3.83;;;;;;;18.96;74.75;94476.22;5010874;28;20227;-73
2022/08/18 02:01:21;;;;;;;4.88;3.78;;;;;;;18.86;75.15;94474.19;5010365;28;20665;-73
2022/08/18 02:03:53;;;;;;;5.78;3.97;;;;;;;18.88;74.88;94471.06;5010181;28;20296;-74
2022/08/18 02:06:19;;;;;;;4.93;3.97;;;;;;;18.81;75.06;94471.81;4998392;28;20248;-73
2022/08/18 02:08:47;;;;;;;9.02;4.32;;;;;;;18.78;75.18;94481.59;5010131;28;20204;-73
2022/08/18 02:11:14;;;;;;;4.65;3.55;;;;;;;18.72;75.28;94482.34;5009563;28;20204;-74
2022/08/18 02:13:43;;;;;;;6.07;4.10;;;;;;;18.74;75.60;94490.97;5010451;28;20216;-73
2022/08/18 02:16:10;;;;;;;4.75;3.58;;;;;;;18.67;75.74;94488.97;5010168;28;20233;-74
2022/08/18 02:18:38;;;;;;;5.90;3.85;;;;;;;18.65;76.09;94491.31;5010803;28;20205;-73
2022/08/18 02:21:09;;;;;;;6.43;3.78;;;;;;;18.62;75.99;94483.06;5010605;28;20312;-74
2022/08/18 02:23:36;;;;;;;7.18;3.75;;;;;;;18.61;75.99;94489.69;5010242;28;20209;-74
2022/08/18 02:26:07;;;;;;;6.00;3.97;;;;;;;18.73;75.94;94486.66;5010298;28;20236;-73
2022/08/18 02:28:35;;;;;;;6.82;3.75;;;;;;;18.57;76.17;94477.91;5010105;28;20259;-74
2022/08/18 02:31:06;;;;;;;6.38;3.80;;;;;;;18.53;76.53;94483.38;5010574;28;20286;-73
2022/08/18 02:33:33;;;;;;;9.63;4.20;;;;;;;18.42;77.11;94480.56;5010235;28;20193;-73
2022/08/18 02:36:00;;;;;;;9.32;4.25;;;;;;;18.36;77.79;94482.06;5009735;28;20248;-73
2022/08/18 02:38:28;;;;;;;5.50;3.92;;;;;;;18.35;77.82;94477.75;5009941;28;20212;-73
2022/08/18 02:40:56;;;;;;;6.32;4.20;;;;;;;18.45;77.88;94474.28;5010217;28;20204;-73
2022/08/18 02:43:23;;;;;;;7.35;3.80;;;;;;;18.50;77.76;94478.63;5010478;28;20232;-73
2022/08/18 02:45:50;;;;;;;6.47;3.53;;;;;;;18.47;77.70;94474.69;5009982;28;20232;-73
2022/08/18 02:48:21;;;;;;;7.03;4.15;;;;;;;18.51;77.24;94479.44;5010172;28;20263;-73
2022/08/18 02:50:48;;;;;;;5.88;3.45;;;;;;;18.62;77.14;94491.28;5009524;28;20718;-73
2022/08/18 02:53:20;;;;;;;7.85;4.72;;;;;;;18.56;77.21;94487.31;5009686;28;20201;-73
2022/08/18 02:55:47;;;;;;;5.32;4.00;;;;;;;18.51;77.40;94484.91;5009449;28;20632;-73
2022/08/18 02:58:14;;;;;;;6.43;3.63;;;;;;;18.50;77.46;94492.34;5009404;28;20204;-73
2022/08/18 03:00:41;;;;;;;7.82;4.07;;;;;;;18.44;77.13;94491.94;5009577;28;20204;-73
2022/08/18 03:03:08;;;;;;;5.28;3.83;;;;;;;18.45;77.46;94493.47;5009688;28;20227;-74
2022/08/18 03:05:37;;;;;;;5.32;3.92;;;;;;;18.44;77.53;94489.19;5009525;28;20232;-73
2022/08/18 03:08:04;;;;;;;7.47;3.92;;;;;;;18.42;77.21;94488.00;4989796;28;20260;-73
2022/08/18 03:10:31;;;;;;;7.30;3.97;;;;;;;18.41;77.38;94487.22;5003174;28;20205;-73
2022/08/18 03:12:58;;;;;;;7.55;4.43;;;;;;;18.36;77.81;94487.53;5010145;28;20290;-73
2022/08/18 03:15:25;;;;;;;4.57;3.45;;;;;;;18.38;77.85;94493.44;5007745;28;20239;-73
2022/08/18 03:17:52;;;;;;;7.28;3.63;;;;;;;18.34;77.68;94487.13;4997971;28;20233;-73
2022/08/18 03:20:19;;;;;;;9.23;4.38;;;;;;;18.37;77.46;94491.88;5009329;28;20229;-73
2022/08/18 03:22:48;;;;;;;10.50;4.35;;;;;;;18.35;77.78;94502.44;5008828;28;20204;-73
2022/08/18 03:25:15;;;;;;;5.65;3.78;;;;;;;18.27;77.90;94497.28;5009152;28;20241;-73
2022/08/18 03:27:42;;;;;;;6.30;3.70;;;;;;;18.25;78.10;94500.41;5009437;28;20285;-73
2022/08/18 03:30:10;;;;;;;7.65;3.70;;;;;;;18.19;78.36;94506.59;5009384;28;20201;-73
2022/08/18 03:32:36;;;;;;;7.25;3.92;;;;;;;18.13;78.30;94503.44;5008935;28;20216;-74
2022/08/18 03:35:04;;;;;;;4.53;3.58;;;;;;;18.14;78.59;94502.25;5009404;28;20267;-74
2022/08/18 03:37:30;;;;;;;5.88;4.13;;;;;;;18.15;78.87;94512.06;5009156;28;20209;-74
2022/08/18 03:39:59;;;;;;;5.47;3.60;;;;;;;18.17;78.06;94507.00;5008877;28;20715;-73
2022/08/18 03:42:26;;;;;;;7.55;4.00;;;;;;;18.20;78.19;94508.97;5008650;28;20664;-74
2022/08/18 03:44:52;;;;;;;6.60;4.28;;;;;;;18.25;77.64;94500.41;5009088;28;20245;-73
2022/08/18 03:47:19;;;;;;;5.93;3.90;;;;;;;18.34;77.56;94500.84;5008844;28;20209;-73
2022/08/18 03:49:47;;;;;;;8.85;4.60;;;;;;;18.55;77.69;94502.19;5008795;28;20245;-73
2022/08/18 03:52:13;;;;;;;7.90;4.30;;;;;;;18.99;76.51;94496.63;5008972;28;20209;-73
2022/08/18 03:54:41;;;;;;;8.05;4.15;;;;;;;19.52;74.85;94496.88;5008951;28;20204;-74
2022/08/18 03:57:11;;;;;;;5.72;3.88;;;;;;;20.02;72.90;94494.25;5008618;28;20684;-72
2022/08/18 03:59:42;;;;;;;6.25;4.38;;;;;;;20.60;70.98;94499.41;5008988;28;20280;-74
2022/08/18 04:02:10;;;;;;;6.55;4.07;;;;;;;21.23;68.97;94494.97;5008766;28;20255;-74
2022/08/18 04:04:38;;;;;;;5.45;4.47;;;;;;;21.84;67.22;94496.28;4995622;28;20229;-73
2022/08/18 04:07:15;;;;;;;8.70;3.97;;;;;;;22.62;64.34;94498.50;5008824;28;20619;-73
2022/08/18 04:09:43;;;;;;;5.78;3.85;;;;;;;22.96;62.78;94508.91;4989318;28;20202;-74
2022/08/18 04:12:14;;;;;;;6.55;4.28;;;;;;;23.69;60.61;94497.44;5003294;28;20311;-75
2022/08/18 04:14:45;;;;;;;8.10;4.43;;;;;;;24.18;59.14;94503.50;4999522;28;20237;-74
2022/08/18 04:17:12;;;;;;;8.63;4.72;;;;;;;24.51;57.48;94499.06;5004337;28;20217;-73
2022/08/18 04:19:39;;;;;;;6.60;5.60;;;;;;;24.87;56.21;94499.25;5008427;28;20209;-73
2022/08/18 04:22:07;;;;;;;6.47;4.78;;;;;;;25.28;55.37;94496.94;5008221;28;20664;-73
2022/08/18 04:24:34;;;;;;;5.78;4.97;;;;;;;24.76;55.75;94513.28;5008001;28;20251;-73
2022/08/18 04:27:03;;;;;;;6.68;4.88;;;;;;;25.49;54.03;94504.06;5007934;28;20212;-73
2022/08/18 04:29:32;;;;;;;9.13;5.50;;;;;;;26.08;52.29;94509.59;5008016;28;20240;-73
2022/08/18 04:32:01;;;;;;;5.53;4.90;;;;;;;25.76;52.82;94512.28;5008381;28;20208;-74
2022/08/18 04:34:28;;;;;;;8.25;5.20;;;;;;;26.50;51.28;94507.09;5009641;28;20231;-74
2022/08/18 04:36:55;;;;;;;5.03;4.35;;;;;;;26.72;50.15;94513.72;5012295;28;20225;-74
2022/08/18 04:39:23;;;;;;;6.82;5.00;;;;;;;27.44;49.10;94507.91;5010915;28;20930;-74
2022/08/18 04:41:50;;;;;;;8.05;5.07;;;;;;;28.12;47.27;94517.94;5011260;28;20205;-73
2022/08/18 04:44:18;;;;;;;5.80;4.80;;;;;;;28.62;45.79;94510.84;5011369;28;20209;-73
2022/08/18 04:46:47;;;;;;;7.55;4.80;;;;;;;28.73;45.53;94511.28;5011668;28;20229;-73
2022/08/18 04:49:15;;;;;;;7.40;4.82;;;;;;;28.77;45.12;94506.38;5011582;28;20205;-73
2022/08/18 04:53:43;;;;;;;6.80;4.78;;;;;;;29.93;43.29;94502.81;5011928;28;20211;-73
2022/08/18 04:54:36;;;;;;;9.98;5.40;;;;;;;29.77;43.19;94503.00;5011885;28;20204;-73
2022/08/18 04:57:08;;;;;;;10.25;5.15;;;;;;;29.61;43.33;94507.53;5012230;28;20679;-73
2022/08/18 04:59:35;;;;;;;5.40;4.85;;;;;;;30.56;41.72;94512.81;5011780;28;20205;-73
2022/08/18 05:02:06;;;;;;;8.35;5.22;;;;;;;30.82;41.15;94508.56;5011728;28;20208;-72
2022/08/18 05:04:33;;;;;;;7.90;5.82;;;;;;;31.19;40.46;94511.47;5011474;28;20293;-73
2022/08/18 05:07:01;;;;;;;7.30;5.35;;;;;;;31.51;40.02;94521.31;5011631;28;20229;-73
2022/08/18 05:09:28;;;;;;;5.85;5.18;;;;;;;31.12;40.45;94520.16;5011461;28;20205;-73
2022/08/18 05:11:54;;;;;;;8.45;5.65;;;;;;;30.75;40.79;94517.25;5011779;28;20201;-73
2022/08/18 05:14:21;;;;;;;8.98;5.75;;;;;;;31.54;39.78;94511.97;5011004;28;20244;-72
2022/08/18 05:16:48;;;;;;;10.70;5.93;;;;;;;30.94;40.51;94521.63;5011744;28;20259;-73
2022/08/18 05:19:21;;;;;;;7.95;5.68;;;;;;;30.47;41.11;94521.13;5011175;28;20211;-72
2022/08/18 05:21:48;;;;;;;8.23;5.70;;;;;;;30.77;40.83;94527.94;5011656;28;20631;-73
2022/08/18 05:24:15;;;;;;;7.88;5.63;;;;;;;31.63;39.27;94520.38;5011414;28;20201;-73
2022/08/18 05:26:43;;;;;;;8.25;5.68;;;;;;;31.44;39.69;94530.78;5011484;28;20357;-73
2022/08/18 05:29:10;;;;;;;9.20;5.68;;;;;;;32.33;37.88;94524.84;5010991;28;20201;-72
2022/08/18 05:31:37;;;;;;;6.85;5.70;;;;;;;31.94;38.78;94528.63;5011008;28;20897;-74
2022/08/18 05:34:04;;;;;;;9.15;6.05;;;;;;;32.22;38.38;94526.59;5010970;28;20615;-73
2022/08/18 05:36:52;;;;;;;9.50;5.68;;;;;;;31.62;39.13;94536.41;5010915;28;20739;-73
2022/08/18 05:39:24;;;;;;;8.50;5.88;;;;;;;31.50;39.73;94528.94;5010847;28;20637;-72
2022/08/18 05:41:55;;;;;;;8.00;5.68;;;;;;;32.47;37.97;94523.41;5010903;28;20267;-73
2022/08/18 05:44:28;;;;;;;6.13;5.53;;;;;;;32.46;37.44;94525.44;5010889;28;20524;-73
2022/08/18 05:46:59;;;;;;;9.15;5.88;;;;;;;31.93;38.37;94543.91;5002383;28;20213;-73
2022/08/18 05:49:27;;;;;;;7.68;5.38;;;;;;;32.60;37.08;94528.81;5010768;28;20696;-74
2022/08/18 05:52:00;;;;;;;7.05;5.50;;;;;;;32.75;36.73;94529.72;5011202;28;20205;-74
2022/08/18 05:57:22;;;;;;;6.18;5.57;;;;;;;31.93;37.77;94532.69;5010499;28;20599;-73
2022/08/18 05:59:52;;;;;;;7.95;5.97;;;;;;;31.17;39.07;94544.72;5010093;28;20224;-74
2022/08/18 06:02:32;;;;;;;8.75;5.47;;;;;;;32.84;36.48;94538.09;5010778;28;20217;-74
2022/08/18 06:05:03;;;;;;;7.55;5.55;;;;;;;31.63;38.17;94543.56;4999057;28;20197;-73
2022/08/18 06:07:36;;;;;;;7.20;5.43;;;;;;;33.04;36.13;94524.28;5010852;28;20216;-73
2022/08/18 06:10:05;;;;;;;8.25;6.05;;;;;;;33.31;35.94;94531.03;5010491;28;20193;-73
2022/08/18 06:12:35;;;;;;;7.13;6.05;;;;;;;33.85;34.90;94527.84;5010477;28;20205;-73
2022/08/18 06:15:08;;;;;;;7.15;5.75;;;;;;;34.07;35.12;94529.50;5001779;28;20324;-73
2022/08/18 06:18:11;;;;;;;7.93;5.60;;;;;;;34.65;34.15;94519.56;5009855;28;20201;-73
2022/08/18 06:20:52;;;;;;;8.20;6.00;;;;;;;35.30;32.73;94520.31;5010121;28;20201;-74
2022/08/18 06:23:30;;;;;;;6.85;5.70;;;;;;;34.95;32.71;94523.91;5010263;28;20189;-73
2022/08/18 06:26:09;;;;;;;7.18;5.85;;;;;;;34.75;33.49;94521.00;4998305;28;20224;-73
2022/08/18 06:28:50;;;;;;;10.10;5.90;;;;;;;33.85;34.68;94539.09;5010232;28;20201;-74
2022/08/18 06:31:23;;;;;;;6.75;5.63;;;;;;;34.94;33.56;94528.00;5009345;28;20239;-74
2022/08/18 06:34:03;;;;;;;6.95;5.93;;;;;;;35.71;31.82;94526.75;5009371;28;20220;-74
2022/08/18 06:36:39;;;;;;;6.22;5.43;;;;;;;36.04;31.48;94532.03;5004647;28;20229;-74
2022/08/18 06:39:17;;;;;;;6.22;5.40;;;;;;;37.04;30.60;94521.69;5010268;28;20193;-74
2022/08/18 06:41:47;;;;;;;6.15;5.10;;;;;;;37.70;29.33;94526.25;5010190;28;20212;-73
2022/08/18 06:44:21;;;;;;;6.32;5.18;;;;;;;37.12;29.67;94522.00;5009295;28;20201;-73
2022/08/18 06:46:53;;;;;;;6.55;5.63;;;;;;;36.44;31.15;94531.97;5009777;28;20216;-72
2022/08/18 06:49:31;;;;;;;6.82;5.53;;;;;;;36.26;31.42;94526.66;5010040;28;20619;-73
2022/08/18 06:51:58;;;;;;;7.00;5.35;;;;;;;34.91;33.92;94521.28;4997992;28;20272;-74
2022/08/18 06:54:29;;;;;;;8.35;5.55;;;;;;;35.38;33.31;94510.22;5008897;28;20208;-73
2022/08/18 06:56:57;;;;;;;9.02;7.22;;;;;;;34.54;34.09;94515.31;5009198;28;20189;-73
2022/08/18 06:59:27;;;;;;;8.75;6.55;;;;;;;33.69;35.11;94522.63;5008921;28;20205;-74
2022/08/18 07:01:59;;;;;;;8.80;6.13;;;;;;;34.39;33.64;94511.72;5009342;28;20225;-74
2022/08/18 07:04:38;;;;;;;11.00;5.75;;;;;;;34.00;34.59;94513.03;5010197;28;20209;-73
2022/08/18 07:07:17;;;;;;;7.80;5.82;;;;;;;33.92;34.40;94506.22;5009936;28;20283;-73
2022/08/18 07:09:45;;;;;;;6.10;5.38;;;;;;;33.95;34.43;94502.44;4997420;28;20304;-73
2022/08/18 07:12:20;;;;;;;7.90;5.28;;;;;;;34.47;34.56;94493.19;5009519;28;20675;-73
2022/08/18 07:14:50;;;;;;;6.97;5.35;;;;;;;32.57;36.57;94496.88;5008836;28;20289;-75
2022/08/18 07:17:22;;;;;;;6.78;5.32;;;;;;;33.76;35.33;94499.78;5009462;28;20263;-74
2022/08/18 07:19:59;;;;;;;6.15;5.00;;;;;;;32.40;36.84;94506.91;5009008;28;20263;-73
2022/08/18 07:22:26;;;;;;;5.40;4.35;;;;;;;32.55;37.58;94501.41;5009320;28;20196;-73
2022/08/18 07:24:58;;;;;;;5.72;4.28;;;;;;;33.35;36.63;94489.50;5009217;28;20251;-73
2022/08/18 07:27:46;;;;;;;7.45;4.60;;;;;;;33.08;35.95;94488.38;5008566;28;20750;-73
2022/08/18 07:30:25;;;;;;;5.03;4.18;;;;;;;32.55;36.84;94495.78;5009109;28;20704;-75
2022/08/18 07:32:58;;;;;;;5.25;4.30;;;;;;;32.32;36.95;94498.06;5009054;28;20200;-74
2022/08/18 07:35:30;;;;;;;9.10;4.25;;;;;;;31.42;38.81;94506.06;5008904;28;20224;-75
2022/08/18 07:38:01;;;;;;;5.35;4.35;;;;;;;30.89;39.76;94502.66;5009192;28;20201;-74
2022/08/18 07:40:37;;;;;;;4.68;4.18;;;;;;;31.35;37.98;94505.56;4996454;28;20216;-73
2022/08/18 07:43:09;;;;;;;7.53;4.45;;;;;;;32.11;37.69;94501.84;5008999;28;20628;-72
2022/08/18 07:45:41;;;;;;;5.93;4.20;;;;;;;32.40;37.14;94496.47;5008307;28;20644;-73
2022/08/18 07:48:13;;;;;;;4.57;4.03;;;;;;;32.05;37.31;94498.09;5009025;28;20293;-73
2022/08/18 07:50:49;;;;;;;4.82;3.65;;;;;;;31.61;37.74;94494.84;5008620;28;20212;-74
2022/08/18 07:53:28;;;;;;;5.97;4.00;;;;;;;32.38;36.93;94495.41;5008689;28;20200;-73
2022/08/18 07:56:06;;;;;;;5.55;4.15;;;;;;;32.17;36.79;94499.94;5008917;28;20569;-74
2022/08/18 07:58:40;;;;;;;5.35;3.50;;;;;;;31.15;38.61;94494.06;5009100;28;20738;-77
2022/08/18 08:01:16;;;;;;;5.18;4.07;;;;;;;30.67;39.00;94496.38;5009110;28;20192;-75
2022/08/18 08:03:51;;;;;;;5.78;3.95;;;;;;;30.84;39.26;94494.88;5008681;28;20664;-74
2022/08/18 08:06:24;;;;;;;7.57;4.47;;;;;;;31.12;39.39;94503.38;5008508;28;20227;-74
2022/08/18 08:09:01;;;;;;;5.18;4.30;;;;;;;32.01;38.28;94495.44;5009034;28;20243;-73
2022/08/18 08:11:43;;;;;;;4.88;4.30;;;;;;;31.58;37.44;94502.16;5012906;28;20204;-73
2022/08/18 08:14:31;;;;;;;8.13;4.40;;;;;;;31.77;37.12;94497.34;5012671;28;20542;-73
2022/08/18 08:17:07;;;;;;;5.47;3.95;;;;;;;32.19;37.19;94503.09;5002133;28;20263;-73
2022/08/18 08:20:07;;;;;;;5.05;4.55;;;;;;;31.26;38.89;94503.56;5012380;28;20223;-73
2022/08/18 08:22:39;;;;;;;4.43;4.03;;;;;;;31.05;39.27;94499.59;4999430;28;20208;-73
2022/08/18 08:25:18;;;;;;;6.65;4.80;;;;;;;31.96;38.08;94489.72;5012941;28;20194;-74
2022/08/18 08:28:06;;;;;;;5.55;3.70;;;;;;;31.62;35.40;94485.19;5012607;28;20313;-74
2022/08/18 08:30:40;;;;;;;6.05;4.15;;;;;;;31.55;36.74;94494.69;5012502;28;20200;-78
2022/08/18 08:33:13;;;;;;;4.22;3.83;;;;;;;31.05;37.04;94505.19;5011726;28;20735;-73
2022/08/18 08:35:45;;;;;;;5.80;4.03;;;;;;;31.25;36.60;94502.00;4999823;28;20263;-74
2022/08/18 08:38:17;;;;;;;3.95;3.55;;;;;;;31.65;36.55;94493.47;5012168;28;20228;-73
2022/08/18 08:40:52;;;;;;;4.32;3.92;;;;;;;31.58;36.67;94501.38;5012231;28;20205;-73
2022/08/18 08:43:30;;;;;;;4.25;3.85;;;;;;;31.13;37.02;94497.31;5013005;28;20315;-75
2022/08/18 08:46:07;;;;;;;6.28;4.07;;;;;;;31.81;36.17;94494.41;5011942;28;20272;-73
2022/08/18 08:48:39;;;;;;;4.95;3.97;;;;;;;31.74;36.83;94499.06;5012140;28;20197;-73
2022/08/18 08:51:19;;;;;;;5.65;4.10;;;;;;;31.77;36.17;94481.31;5011934;28;20599;-73
2022/08/18 08:53:53;;;;;;;5.80;4.10;;;;;;;31.77;36.55;94486.94;5012207;28;20271;-73
2022/08/18 08:56:22;;;;;;;4.13;3.67;;;;;;;32.16;35.30;94484.38;5012143;28;20197;-74
2022/08/18 08:58:57;;;;;;;5.80;3.88;;;;;;;32.08;34.93;94488.75;5012213;28;20228;-74
2022/08/18 09:01:30;;;;;;;4.18;3.83;;;;;;;32.33;34.70;94488.41;5011713;28;20606;-73
2022/08/18 09:04:05;;;;;;;5.70;3.40;;;;;;;32.45;33.90;94473.41;5011883;28;20209;-73
2022/08/18 09:06:41;;;;;;;4.15;3.50;;;;;;;32.22;33.61;94482.53;4999277;28;20599;-73
2022/08/18 09:09:25;;;;;;;4.88;3.80;;;;;;;31.94;34.78;94478.19;5011857;28;20200;-74
2022/08/18 09:12:13;;;;;;;3.97;3.58;;;;;;;31.61;34.60;94476.00;5011549;28;20674;-74
2022/08/18 09:15:13;;;;;;;4.35;3.53;;;;;;;31.09;35.58;94480.66;5011782;28;20247;-73
2022/08/18 09:17:57;;;;;;;4.60;3.35;;;;;;;31.05;36.45;94470.81;5011950;28;20637;-73
2022/08/18 09:20:41;;;;;;;4.60;3.33;;;;;;;31.42;35.59;94466.06;4997847;28;20653;-73
2022/08/18 09:23:10;;;;;;;3.75;3.45;;;;;;;32.08;34.11;94466.31;5011110;28;20610;-73
2022/08/18 09:25:46;;;;;;;4.82;3.40;;;;;;;32.37;34.13;94455.38;5011468;28;20232;-73
2022/08/18 09:28:17;;;;;;;7.78;4.75;;;;;;;32.44;32.34;94463.44;5011508;28;20271;-74
2022/08/18 09:30:51;;;;;;;4.28;2.85;;;;;;;32.17;33.85;94463.50;4998578;28;20201;-73
2022/08/18 09:33:33;;;;;;;3.92;3.50;;;;;;;32.11;34.35;94448.56;5011849;28;20204;-73
2022/08/18 09:36:16;;;;;;;4.25;3.67;;;;;;;32.60;33.04;94444.66;5010916;28;20708;-73
2022/08/18 09:41:44;;;;;;;4.80;3.70;;;;;;;32.68;33.47;94440.25;5011793;28;20206;-74
2022/08/18 09:44:14;;;;;;;3.95;3.55;;;;;;;32.05;33.57;94447.66;5011976;28;20201;-74
2022/08/18 09:46:54;;;;;;;4.70;3.80;;;;;;;31.31;34.47;94460.13;5011260;28;20220;-77
2022/08/18 09:49:52;;;;;;;5.68;3.80;;;;;;;31.71;34.50;94443.19;5011391;28;20197;-73
2022/08/18 09:52:56;;;;;;;6.45;3.50;;;;;;;32.63;34.20;94443.72;4958681;28;20811;-73
2022/08/18 09:55:55;;;;;;;4.65;3.15;;;;;;;32.96;31.89;94427.63;5000230;28;20232;-73
2022/08/18 09:59:04;;;;;;;3.72;3.00;;;;;;;33.37;31.66;94416.75;4993174;28;20205;-73
2022/08/18 10:01:40;;;;;;;3.40;3.10;;;;;;;33.75;30.96;94413.91;5010795;28;20671;-74
2022/08/18 10:04:28;;;;;;;5.53;3.25;;;;;;;32.77;32.06;94426.22;5011022;28;20552;-76
2022/08/18 10:06:55;;;;;;;3.10;2.63;;;;;;;32.42;32.88;94421.06;5010543;28;20252;-74
2022/08/18 10:09:44;;;;;;;4.72;3.58;;;;;;;32.21;32.99;94419.28;5010485;28;20296;-73
2022/08/18 10:12:24;;;;;;;4.95;3.40;;;;;;;32.97;33.06;94423.56;5010707;28;20644;-73
2022/08/18 10:15:23;;;;;;;3.50;3.20;;;;;;;32.36;32.98;94420.16;5010778;28;20237;-75
2022/08/18 10:18:05;;;;;;;4.38;3.47;;;;;;;32.41;32.91;94421.50;4997639;28;20252;-74
2022/08/18 10:20:44;;;;;;;4.10;3.60;;;;;;;32.94;32.89;94416.09;5009680;28;20602;-72
2022/08/18 10:23:10;;;;;;;3.88;3.35;;;;;;;33.25;32.39;94412.94;5009445;28;20247;-72
2022/08/18 10:25:41;;;;;;;3.97;3.58;;;;;;;32.87;31.69;94416.47;5010026;28;20201;-72
2022/08/18 10:28:10;;;;;;;4.40;3.72;;;;;;;33.37;31.82;94408.31;5010115;28;20870;-73
2022/08/18 10:31:03;;;;;;;4.20;3.70;;;;;;;33.24;32.60;94410.59;5010029;28;20205;-74
2022/08/18 10:34:10;;;;;;;5.10;3.60;;;;;;;33.79;31.55;94396.88;5008723;28;20202;-73
2022/08/18 10:36:44;;;;;;;3.92;3.42;;;;;;;33.23;30.63;94395.75;5005147;28;20201;-72
2022/08/18 10:39:14;;;;;;;4.20;3.75;;;;;;;33.62;31.13;94392.97;5010445;28;20203;-74
2022/08/18 10:41:53;;;;;;;3.55;3.25;;;;;;;33.64;29.98;94394.03;5009734;28;20248;-73
2022/08/18 10:44:22;;;;;;;3.72;3.35;;;;;;;33.22;30.68;94393.44;5009858;28;20711;-74
2022/08/18 10:46:52;;;;;;;5.15;3.80;;;;;;;33.26;30.71;94405.28;5009537;28;20235;-74
2022/08/18 10:49:24;;;;;;;4.68;3.50;;;;;;;33.15;31.14;94389.75;5010032;28;20661;-74
2022/08/18 10:52:30;;;;;;;4.00;3.63;;;;;;;33.29;31.17;94398.72;4997487;28;20236;-74
2022/08/18 10:55:32;;;;;;;4.43;3.25;;;;;;;33.50;30.31;94394.78;4993277;28;20270;-74
2022/08/18 10:58:39;;;;;;;4.43;3.97;;;;;;;33.94;30.75;94388.44;4999786;28;20227;-73
2022/08/18 11:01:19;;;;;;;4.43;3.25;;;;;;;33.99;29.87;94376.53;5009825;28;20207;-74
2022/08/18 11:04:01;;;;;;;4.72;3.30;;;;;;;33.57;30.49;94380.38;5009617;28;20205;-73
2022/08/18 11:06:29;;;;;;;5.35;2.95;;;;;;;33.94;32.38;94368.75;4997377;28;20193;-74
2022/08/18 11:09:00;;;;;;;5.15;3.55;;;;;;;33.94;29.69;94380.00;5009428;28;20266;-74
2022/08/18 11:11:33;;;;;;;6.03;3.50;;;;;;;33.65;30.21;94370.28;5010110;28;20220;-73
2022/08/18 11:14:11;;;;;;;5.25;3.58;;;;;;;33.92;29.64;94362.84;5009711;28;20193;-76
2022/08/18 11:16:51;;;;;;;4.15;3.75;;;;;;;33.89;29.80;94362.56;4970897;28;20195;-73
2022/08/18 11:19:21;;;;;;;6.63;3.95;;;;;;;34.09;29.85;94369.53;4970863;28;20198;-72
2022/08/18 11:21:49;;;;;;;3.78;3.38;;;;;;;34.09;29.59;94369.53;4969880;28;20575;-71
2022/08/18 11:24:20;;;;;;;5.40;3.10;;;;;;;33.87;29.62;94372.75;4969893;28;20210;-73
2022/08/18 11:26:50;;;;;;;5.20;3.22;;;;;;;33.47;29.94;94370.47;4969239;28;20210;-75
2022/08/18 11:29:24;;;;;;;3.45;3.15;;;;;;;33.67;29.37;94367.00;4969996;28;20202;-72
2022/08/18 11:31:55;;;;;;;4.25;3.35;;;;;;;33.97;28.74;94362.16;4970809;28;20194;-74
2022/08/18 11:34:28;;;;;;;3.47;3.17;;;;;;;34.02;29.56;94364.31;4970216;28;20232;-74
2022/08/18 11:36:58;;;;;;;3.80;3.38;;;;;;;33.98;28.64;94358.09;4970478;28;20342;-74
2022/08/18 11:39:28;;;;;;;4.85;3.22;;;;;;;34.17;28.65;94359.41;4970066;28;20269;-73
2022/08/18 11:41:56;;;;;;;4.80;3.40;;;;;;;34.10;28.64;94354.19;4970126;28;20561;-73
2022/08/18 11:44:27;;;;;;;3.70;3.30;;;;;;;33.77;29.29;94358.00;4970204;28;20206;-73
2022/08/18 11:46:56;;;;;;;8.88;5.53;;;;;;;34.33;28.55;94355.34;4970303;28;20226;-74
2022/08/18 11:49:31;;;;;;;3.45;3.15;;;;;;;34.56;28.57;94352.38;4970319;28;20856;-73
2022/08/18 11:52:04;;;;;;;4.75;3.25;;;;;;;34.05;28.81;94352.06;4957950;28;20233;-74
2022/08/18 11:54:40;;;;;;;6.00;3.35;;;;;;;34.35;28.42;94345.16;4969743;28;20579;-73
2022/08/18 11:57:40;;;;;;;3.60;3.15;;;;;;;34.15;28.38;94345.09;4969754;28;20743;-77
2022/08/18 12:00:35;;;;;;;4.05;3.55;;;;;;;33.66;28.22;94342.97;4953550;28;20238;-75
2022/08/18 12:03:03;;;;;;;4.40;3.72;;;;;;;33.96;28.14;94343.75;4970157;28;20293;-75
2022/08/18 12:05:29;;;;;;;3.95;3.08;;;;;;;33.63;28.58;94333.47;4969605;28;20206;-74
2022/08/18 12:07:56;;;;;;;4.00;3.60;;;;;;;34.32;28.32;94342.53;4968953;28;20238;-73
2022/08/18 12:10:27;;;;;;;4.90;3.47;;;;;;;34.07;28.40;94327.06;4969314;28;20206;-73
2022/08/18 12:12:56;;;;;;;3.92;3.22;;;;;;;34.38;28.25;94329.34;4969350;28;20247;-73